Time;durP1;ratioP1;P1;durP2;ratioP2;P2;SDS_P1;SDS_P2;PMS_P1;PMS_P2;Temp;Humidity;BMP_temperature;BMP_pressure;BME280_temperature;BME280_humidity;BME280_pressure;Samples;Min_cycle;Max_cycle;Signal;HPM_P1;HPM_P2
2021/03/22 00:02:52;;;;;;;13.43;6.70;;;3.10;99.90;;;;;;20930816;28;20029;-76
2021/03/22 00:12:54;;;;;;;19.92;8.57;;;2.90;99.90;;;;;;20900785;28;20057;-75
2021/03/22 00:22:55;;;;;;;16.35;7.78;;;2.60;99.90;;;;;;20908199;28;20033;-76
2021/03/22 00:32:56;;;;;;;16.17;7.70;;;2.40;99.90;;;;;;20928823;28;20170;-77
2021/03/22 00:42:57;;;;;;;15.43;7.32;;;2.20;99.90;;;;;;20918155;28;20025;-77
2021/03/22 00:52:58;;;;;;;14.18;6.65;;;2.20;99.90;;;;;;20912410;28;20037;-77
2021/03/22 01:02:59;;;;;;;20.02;6.53;;;2.10;99.90;;;;;;20942168;28;20029;-75
2021/03/22 01:13:02;;;;;;;11.50;6.13;;;2.10;99.90;;;;;;20926197;28;20037;-76
2021/03/22 01:23:03;;;;;;;10.93;6.13;;;2.10;99.90;;;;;;20916487;28;20037;-76
2021/03/22 01:33:07;;;;;;;;;;;2.20;99.90;;;;;;20914061;28;20414;-76
2021/03/22 01:43:13;;;;;;;16.33;7.88;;;2.00;99.90;;;;;;20927392;28;19920;-76
2021/03/22 01:53:15;;;;;;;13.77;6.70;;;2.10;99.90;;;;;;20923498;28;20035;-76
2021/03/22 02:03:18;;;;;;;14.45;7.07;;;2.00;99.90;;;;;;20927538;28;20551;-77
2021/03/22 02:13:24;;;;;;;13.13;6.50;;;2.00;99.90;;;;;;20936129;28;20407;-76
2021/03/22 02:23:28;;;;;;;11.02;6.70;;;1.50;99.90;;;;;;20935880;28;20460;-77
2021/03/22 02:33:47;;;;;;;19.40;7.53;;;1.30;99.90;;;;;;20927310;28;20060;-77
2021/03/22 02:44:12;;;;;;;19.48;8.30;;;1.20;99.90;;;;;;20905370;28;20495;-76
2021/03/22 02:54:42;;;;;;;24.58;8.15;;;0.90;99.90;;;;;;20905892;28;20033;-76
2021/03/22 03:04:44;;;;;;;14.95;6.95;;;0.70;99.90;;;;;;20894231;28;20048;-76
2021/03/22 03:14:48;;;;;;;21.90;8.57;;;0.80;99.90;;;;;;20920242;28;20426;-76
2021/03/22 03:24:48;;;;;;;17.50;8.50;;;0.60;99.90;;;;;;20909233;28;20032;-76
2021/03/22 03:34:49;;;;;;;20.50;8.70;;;0.60;99.90;;;;;;20901281;23;20075;-76
2021/03/22 03:44:50;;;;;;;18.17;7.88;;;0.60;99.90;;;;;;20880272;28;20033;-77
2021/03/22 03:54:51;;;;;;;;;;;0.70;99.90;;;;;;20877715;28;20427;-77
2021/03/22 04:04:52;;;;;;;21.40;10.40;;;0.60;99.90;;;;;;20911669;28;19913;-77
2021/03/22 04:14:52;;;;;;;23.42;9.40;;;0.30;99.90;;;;;;20910548;28;20533;-76
2021/03/22 04:24:53;;;;;;;17.73;8.88;;;0.00;99.90;;;;;;20881878;28;20553;-76
2021/03/22 04:34:54;;;;;;;20.92;9.18;;;-0.30;99.90;;;;;;20857779;28;20044;-77
2021/03/22 04:44:55;;;;;;;17.88;8.40;;;-0.30;99.90;;;;;;20825769;28;20033;-77
2021/03/22 04:54:56;;;;;;;21.40;8.52;;;-0.40;99.90;;;;;;20808097;28;20105;-77
2021/03/22 05:04:57;;;;;;;23.02;9.02;;;-0.70;99.90;;;;;;20823807;28;20041;-77
2021/03/22 05:14:58;;;;;;;24.75;9.07;;;-0.80;99.90;;;;;;20824427;28;20060;-75
2021/03/22 05:24:58;;;;;;;16.20;8.00;;;-0.60;99.90;;;;;;20823615;28;20033;-76
2021/03/22 05:34:59;;;;;;;17.90;9.05;;;-0.80;99.90;;;;;;20824483;28;20087;-77
2021/03/22 05:45:06;;;;;;;34.13;15.95;;;-0.80;99.90;;;;;;20806316;28;20036;-76
2021/03/22 05:55:26;;;;;;;39.90;12.77;;;-0.70;99.90;;;;;;20857652;28;20029;-76
2021/03/22 06:05:50;;;;;;;60.50;23.02;;;-0.60;99.90;;;;;;20863590;28;20029;-76
2021/03/22 06:16:00;;;;;;;29.70;12.23;;;-0.60;99.90;;;;;;20827711;28;20099;-77
2021/03/22 06:26:03;;;;;;;26.80;10.93;;;-0.20;99.90;;;;;;20837349;28;20037;-76
2021/03/22 06:36:05;;;;;;;34.38;11.23;;;-0.20;99.90;;;;;;20817967;28;20040;-77
2021/03/22 06:46:09;;;;;;;20.27;9.38;;;0.30;99.90;;;;;;20816963;28;20104;-77
2021/03/22 06:56:28;;;;;;;24.63;9.15;;;0.80;99.90;;;;;;20834190;28;20038;-76
2021/03/22 07:06:29;;;;;;;25.80;9.40;;;1.30;99.90;;;;;;20816648;28;20038;-76
2021/03/22 07:16:31;;;;;;;;;;;1.90;99.90;;;;;;20833200;28;20506;-77
2021/03/22 07:26:54;;;;;;;30.13;12.63;;;2.30;99.90;;;;;;20813086;28;19913;-77
2021/03/22 07:37:14;;;;;;;24.20;10.10;;;2.80;99.90;;;;;;20813253;28;20111;-77
2021/03/22 07:47:41;;;;;;;19.98;10.63;;;3.20;99.90;;;;;;20830161;28;20030;-77
2021/03/22 07:58:23;;;;;;;28.63;10.63;;;3.60;99.90;;;;;;20829832;28;20479;-76
2021/03/22 08:08:33;;;;;;;28.77;12.80;;;3.80;99.90;;;;;;20793826;28;20458;-78
2021/03/22 08:18:51;;;;;;;23.70;11.95;;;3.60;99.90;;;;;;20810292;28;20064;-78
2021/03/22 08:29:04;;;;;;;26.73;11.25;;;3.70;99.90;;;;;;20809554;28;20064;-78
2021/03/22 08:39:17;;;;;;;24.20;11.80;;;4.20;99.90;;;;;;20826009;28;20506;-78
2021/03/22 08:49:35;;;;;;;32.15;13.68;;;4.10;99.90;;;;;;20807935;28;20064;-77
2021/03/22 08:59:37;;;;;;;38.95;14.10;;;4.00;99.90;;;;;;20807194;28;20115;-77
2021/03/22 09:09:43;;;;;;;28.77;12.73;;;4.10;99.90;;;;;;20824483;28;20044;-78
2021/03/22 09:19:45;;;;;;;32.55;14.40;;;4.30;99.90;;;;;;20823749;28;20033;-78
2021/03/22 09:29:52;;;;;;;28.90;12.93;;;4.40;99.90;;;;;;20805939;28;20033;-78
2021/03/22 09:39:53;;;;;;;32.10;11.63;;;4.70;99.90;;;;;;20913063;23;20080;-74
2021/03/22 09:50:00;;;;;;;40.43;14.90;;;5.30;99.90;;;;;;20814954;28;20029;-74
2021/03/22 10:00:11;;;;;;;25.17;9.68;;;4.90;99.90;;;;;;20846617;28;20045;-73
2021/03/22 10:10:28;;;;;;;25.25;9.93;;;5.10;99.90;;;;;;20846616;28;20049;-76
2021/03/22 10:20:47;;;;;;;28.17;6.68;;;5.10;99.90;;;;;;20837036;28;20041;-77
2021/03/22 10:30:57;;;;;;;18.60;7.07;;;5.10;99.90;;;;;;20837343;28;20650;-76
2021/03/22 10:41:00;;;;;;;21.05;6.20;;;5.50;99.90;;;;;;20836131;28;20029;-77
2021/03/22 10:51:11;;;;;;;19.23;7.25;;;5.90;99.90;;;;;;20835299;28;20116;-77
2021/03/22 11:01:13;;;;;;;23.42;7.90;;;6.40;99.90;;;;;;20835915;28;20105;-76
2021/03/22 11:11:18;;;;;;;24.30;7.00;;;6.30;99.90;;;;;;20835547;28;20113;-77
2021/03/22 11:21:23;;;;;;;47.60;15.63;;;6.40;99.90;;;;;;20838561;28;20064;-77
2021/03/22 11:31:28;;;;;;;27.02;6.32;;;6.30;99.90;;;;;;20835310;28;20037;-76
2021/03/22 11:41:36;;;;;;;24.08;6.63;;;6.30;99.90;;;;;;20816464;28;20116;-77
2021/03/22 11:51:49;;;;;;;21.85;5.57;;;6.40;99.90;;;;;;20832840;28;20453;-76
2021/03/22 12:02:10;;;;;;;28.27;5.93;;;6.30;99.90;;;;;;20833301;28;20033;-77
2021/03/22 12:12:16;;;;;;;32.10;5.68;;;6.00;99.90;;;;;;20830877;28;20492;-77
2021/03/22 12:22:19;;;;;;;23.65;6.28;;;5.80;99.90;;;;;;20811402;28;20036;-78
2021/03/22 12:32:25;;;;;;;20.30;6.22;;;5.90;99.90;;;;;;20837075;28;20370;-78
2021/03/22 12:42:28;;;;;;;17.08;4.93;;;5.90;99.90;;;;;;20829688;28;20063;-76
2021/03/22 12:52:29;;;;;;;47.92;9.10;;;5.80;99.90;;;;;;20827717;28;20029;-76
2021/03/22 13:02:32;;;;;;;20.50;4.77;;;6.20;99.90;;;;;;20823263;28;20423;-75
2021/03/22 13:12:35;;;;;;;27.75;5.50;;;6.30;99.90;;;;;;20822870;28;20120;-75
2021/03/22 13:22:35;;;;;;;24.13;5.20;;;6.20;99.90;;;;;;20825375;28;20052;-77
2021/03/22 13:32:36;;;;;;;21.63;4.80;;;5.70;99.90;;;;;;20805548;28;20462;-77
2021/03/22 13:42:37;;;;;;;15.03;4.80;;;6.10;99.90;;;;;;20832749;28;20032;-74
2021/03/22 13:52:38;;;;;;;13.43;4.07;;;6.20;99.90;;;;;;20820237;28;20035;-77
2021/03/22 14:02:40;;;;;;;10.40;2.97;;;6.20;99.90;;;;;;20804416;28;20033;-76
2021/03/22 14:12:42;;;;;;;15.38;3.88;;;6.30;99.90;;;;;;20774869;28;20038;-76
2021/03/22 14:22:42;;;;;;;16.98;4.10;;;6.60;99.90;;;;;;20816469;28;20029;-76
2021/03/22 14:32:44;;;;;;;13.93;4.10;;;6.50;99.90;;;;;;20819835;28;20040;-76
2021/03/22 14:42:45;;;;;;;20.50;6.55;;;6.60;99.90;;;;;;20817396;28;20512;-76
2021/03/22 14:52:47;;;;;;;12.90;3.53;;;6.50;99.90;;;;;;20814790;28;20155;-77
2021/03/22 15:02:49;;;;;;;15.40;3.67;;;6.60;99.90;;;;;;20813768;28;20029;-76
2021/03/22 15:12:50;;;;;;;17.45;4.00;;;6.50;99.90;;;;;;20820068;28;20707;-75
2021/03/22 15:22:52;;;;;;;16.13;3.33;;;6.50;99.90;;;;;;20811266;28;20116;-74
2021/03/22 15:32:53;;;;;;;12.10;3.78;;;6.30;99.90;;;;;;20911988;22;20097;-77
2021/03/22 15:42:54;;;;;;;15.33;3.17;;;6.10;99.90;;;;;;20999457;28;20048;-78
2021/03/22 15:52:55;;;;;;;12.90;2.80;;;6.20;99.90;;;;;;20970337;28;20052;-78
2021/03/22 16:03:00;;;;;;;12.73;2.73;;;6.20;99.90;;;;;;20892935;28;20038;-77
2021/03/22 16:13:02;;;;;;;7.50;2.00;;;6.00;99.90;;;;;;20891532;28;20029;-79
2021/03/22 16:23:07;;;;;;;6.10;2.50;;;5.90;99.90;;;;;;20886447;28;20040;-78
2021/03/22 16:33:10;;;;;;;7.88;2.70;;;5.80;99.90;;;;;;20934476;28;20040;-77
2021/03/22 16:43:14;;;;;;;9.55;2.05;;;5.60;99.90;;;;;;20942485;28;20029;-77
2021/03/22 16:53:15;;;;;;;10.98;1.80;;;5.50;99.90;;;;;;20949382;28;20040;-79
2021/03/22 17:03:16;;;;;;;;;;;5.40;99.90;;;;;;20969271;28;20040;-78
2021/03/22 17:13:18;;;;;;;9.75;2.17;;;5.40;99.90;;;;;;20970465;28;20018;-77
2021/03/22 17:23:19;;;;;;;6.78;2.33;;;5.30;99.90;;;;;;20953475;28;20068;-76
2021/03/22 17:33:21;;;;;;;5.95;1.90;;;5.10;99.90;;;;;;20956173;28;20045;-78
2021/03/22 17:43:22;;;;;;;5.57;2.50;;;4.90;99.90;;;;;;20965618;28;20529;-78
2021/03/22 17:53:23;;;;;;;6.80;2.03;;;4.90;99.90;;;;;;20928307;28;20044;-78
2021/03/22 18:03:24;;;;;;;5.63;2.07;;;4.80;99.90;;;;;;20949043;28;20491;-77
2021/03/22 18:13:32;;;;;;;12.23;2.10;;;4.70;99.90;;;;;;20925376;28;20040;-77
2021/03/22 18:23:34;;;;;;;8.38;2.45;;;4.80;99.90;;;;;;20914537;28;20033;-77
2021/03/22 18:33:34;;;;;;;13.32;3.22;;;4.70;99.90;;;;;;20899419;28;20055;-77
2021/03/22 18:43:37;;;;;;;9.07;3.20;;;4.40;99.90;;;;;;20898055;28;20025;-78
2021/03/22 18:53:39;;;;;;;13.35;3.63;;;4.30;99.90;;;;;;20889429;28;20036;-78
2021/03/22 19:03:40;;;;;;;10.57;4.97;;;4.20;99.90;;;;;;20940835;28;20494;-77
2021/03/22 19:13:41;;;;;;;12.50;4.20;;;4.20;99.90;;;;;;20958998;28;20038;-77
2021/03/22 19:23:43;;;;;;;15.03;5.60;;;4.40;99.90;;;;;;20910460;28;20032;-77
2021/03/22 19:33:44;;;;;;;14.77;4.57;;;4.50;99.90;;;;;;20870259;28;20041;-78
2021/03/22 19:43:48;;;;;;;13.70;3.60;;;4.40;99.90;;;;;;20904064;28;20044;-76
2021/03/22 19:53:49;;;;;;;10.77;3.75;;;4.30;99.90;;;;;;20965903;28;20098;-76
2021/03/22 20:03:49;;;;;;;13.90;3.90;;;4.30;99.90;;;;;;20948006;28;20040;-76
2021/03/22 20:13:51;;;;;;;12.80;4.00;;;4.20;99.90;;;;;;20917489;28;20088;-76
2021/03/22 20:23:52;;;;;;;;;;;4.10;99.90;;;;;;20952875;28;20501;-76
2021/03/22 20:33:54;;;;;;;9.18;3.08;;;4.20;99.90;;;;;;20905726;28;20003;-77
2021/03/22 20:43:56;;;;;;;15.20;3.97;;;4.10;99.90;;;;;;20910584;28;20037;-78
2021/03/22 20:53:57;;;;;;;9.50;3.75;;;4.20;99.90;;;;;;20969993;28;20081;-78
2021/03/22 21:03:58;;;;;;;19.43;3.73;;;4.00;99.90;;;;;;20970506;28;20028;-78
2021/03/22 21:13:58;;;;;;;12.47;4.17;;;3.90;99.90;;;;;;20969223;28;20070;-77
2021/03/22 21:23:59;;;;;;;9.37;4.03;;;3.90;99.90;;;;;;20893134;28;20470;-77
2021/03/22 21:34:00;;;;;;;12.80;4.27;;;3.90;99.90;;;;;;20935787;23;20049;-76
2021/03/22 21:44:01;;;;;;;11.33;4.07;;;3.90;99.90;;;;;;20844396;28;20044;-77
2021/03/22 21:54:02;;;;;;;11.87;4.13;;;3.90;99.90;;;;;;20918138;28;20502;-77
2021/03/22 22:04:03;;;;;;;10.70;3.97;;;3.80;99.90;;;;;;20924957;28;20032;-76
2021/03/22 22:14:04;;;;;;;11.40;4.38;;;3.90;99.90;;;;;;20907762;28;20128;-77
2021/03/22 22:24:05;;;;;;;9.47;4.53;;;3.90;99.90;;;;;;20926697;28;20544;-77
2021/03/22 22:34:06;;;;;;;17.77;5.10;;;3.70;99.90;;;;;;20924414;28;20033;-77
2021/03/22 22:44:07;;;;;;;;;;;3.60;99.90;;;;;;20921030;28;20288;-76
2021/03/22 22:54:08;;;;;;;11.88;4.20;;;3.70;99.90;;;;;;20921208;28;19934;-77
2021/03/22 23:04:09;;;;;;;14.48;5.07;;;3.60;99.90;;;;;;20919011;28;20059;-77
2021/03/22 23:14:10;;;;;;;13.30;4.87;;;3.50;99.90;;;;;;20900884;28;20483;-76
2021/03/22 23:24:22;;;;;;;13.13;4.90;;;3.40;99.90;;;;;;20921569;28;20053;-77
2021/03/22 23:34:24;;;;;;;12.23;4.95;;;3.40;99.90;;;;;;20917665;28;20029;-75
2021/03/22 23:44:25;;;;;;;18.23;4.85;;;3.30;99.90;;;;;;20899645;28;20108;-77
2021/03/22 23:54:29;;;;;;;;;;;3.30;99.90;;;;;;20916045;28;20498;-78
